KHRJ

Harnett Regional Jetport Airport

Erwin, North Carolina, USA
METAR KHRJ 221525Z AUTO 23006KT 10SM SCT026 SCT031 BKN120 27/17 A3015 RMK AO2 T02740172
Observed Flight Rules
May-22 @ 15:25 UTC (22 minutes ago) Visual Flight Rules
Wind Visibility Clouds
230° at 6 knots 10 miles
  • Scattered at 2,600' AGL
  • Scattered at 3,100' AGL
  • Broken at 12,000' AGL
Temperatures Readings
Current 27°C / 81°F
Dewpoint 17°C / 63°F
Humidity 54%
Altimeter 30.15" Hg
Pressure 1021 hPa
Elevation 60
METAR KHRJ 221525Z AUTO 23006KT 10SM SCT026 SCT031 BKN120 27/17 A3015 RMK AO2 T02740172
Observed Flight Rules
May-22 @ 15:25 UTC
(22 minutes ago)
VFR
Wind Visibility
230° at 6 knots 10 miles
Clouds
  • Scattered at 2,600' AGL
  • Scattered at 3,100' AGL
  • Broken at 12,000' AGL
Temperature Dewpoint
27°C / 81°F 17°C / 63°F
Humidity Altimeter Pressure
54% 30.15" Hg 1021 hPa